sensor_id;sensor_type;location;lat;lon;timestamp;pressure;altitude;pressure_sealevel;temperature;humidity
28167;BME280;15455;53.376;-6.262;2023-05-31T00:00:03;102780.59;;;8.99;100.00
28167;BME280;15455;53.376;-6.262;2023-05-31T00:02:48;102777.72;;;8.91;100.00
28167;BME280;15455;53.376;-6.262;2023-05-31T00:05:34;102773.28;;;8.89;100.00
28167;BME280;15455;53.376;-6.262;2023-05-31T00:08:20;102778.31;;;8.84;100.00
28167;BME280;15455;53.376;-6.262;2023-05-31T00:11:07;102774.75;;;8.82;100.00
28167;BME280;15455;53.376;-6.262;2023-05-31T00:13:53;102772.03;;;8.79;100.00
28167;BME280;15455;53.376;-6.262;2023-05-31T00:16:38;102775.47;;;8.78;100.00
28167;BME280;15455;53.376;-6.262;2023-05-31T00:19:27;102770.25;;;8.78;100.00
28167;BME280;15455;53.376;-6.262;2023-05-31T00:22:13;102764.81;;;8.72;100.00
28167;BME280;15455;53.376;-6.262;2023-05-31T00:25:00;102761.41;;;8.73;100.00
28167;BME280;15455;53.376;-6.262;2023-05-31T00:27:46;102759.56;;;8.70;100.00
28167;BME280;15455;53.376;-6.262;2023-05-31T00:30:31;102765.53;;;8.67;100.00
28167;BME280;15455;53.376;-6.262;2023-05-31T00:33:17;102762.13;;;8.68;100.00
28167;BME280;15455;53.376;-6.262;2023-05-31T00:36:02;102761.22;;;8.68;100.00
28167;BME280;15455;53.376;-6.262;2023-05-31T00:38:48;102770.91;;;8.72;100.00
28167;BME280;15455;53.376;-6.262;2023-05-31T00:41:34;102768.13;;;8.67;100.00
28167;BME280;15455;53.376;-6.262;2023-05-31T00:44:19;102767.97;;;8.63;100.00
28167;BME280;15455;53.376;-6.262;2023-05-31T00:47:05;102769.56;;;8.59;100.00
28167;BME280;15455;53.376;-6.262;2023-05-31T00:49:52;102778.16;;;8.57;100.00
28167;BME280;15455;53.376;-6.262;2023-05-31T00:52:38;102771.22;;;8.57;100.00
28167;BME280;15455;53.376;-6.262;2023-05-31T00:55:24;102777.38;;;8.59;100.00
28167;BME280;15455;53.376;-6.262;2023-05-31T00:58:10;102772.03;;;8.56;100.00
28167;BME280;15455;53.376;-6.262;2023-05-31T01:00:57;102774.53;;;8.53;100.00
28167;BME280;15455;53.376;-6.262;2023-05-31T01:03:43;102774.59;;;8.55;100.00
28167;BME280;15455;53.376;-6.262;2023-05-31T01:06:28;102771.00;;;8.51;100.00
28167;BME280;15455;53.376;-6.262;2023-05-31T01:09:20;102767.47;;;8.50;100.00
28167;BME280;15455;53.376;-6.262;2023-05-31T01:15:24;102764.94;;;8.52;100.00
28167;BME280;15455;53.376;-6.262;2023-05-31T01:21:05;102765.53;;;8.67;100.00
28167;BME280;15455;53.376;-6.262;2023-05-31T01:26:46;102775.25;;;8.72;100.00
28167;BME280;15455;53.376;-6.262;2023-05-31T01:29:34;102771.63;;;8.68;100.00
28167;BME280;15455;53.376;-6.262;2023-05-31T01:32:21;102776.91;;;8.69;100.00
28167;BME280;15455;53.376;-6.262;2023-05-31T01:35:07;102780.34;;;8.68;100.00
28167;BME280;15455;53.376;-6.262;2023-05-31T01:37:54;102789.19;;;8.74;100.00
28167;BME280;15455;53.376;-6.262;2023-05-31T01:40:40;102781.38;;;8.74;100.00
28167;BME280;15455;53.376;-6.262;2023-05-31T01:43:26;102785.53;;;8.68;100.00
28167;BME280;15455;53.376;-6.262;2023-05-31T01:46:14;102783.94;;;8.72;100.00
28167;BME280;15455;53.376;-6.262;2023-05-31T01:49:02;102783.06;;;8.72;100.00
28167;BME280;15455;53.376;-6.262;2023-05-31T01:51:48;102787.31;;;8.69;100.00
28167;BME280;15455;53.376;-6.262;2023-05-31T01:54:35;102788.16;;;8.68;100.00
28167;BME280;15455;53.376;-6.262;2023-05-31T01:57:22;102788.09;;;8.67;100.00
28167;BME280;15455;53.376;-6.262;2023-05-31T02:00:09;102788.19;;;8.70;100.00
28167;BME280;15455;53.376;-6.262;2023-05-31T02:02:58;102782.28;;;8.74;100.00
28167;BME280;15455;53.376;-6.262;2023-05-31T02:05:58;102782.69;;;8.85;100.00
28167;BME280;15455;53.376;-6.262;2023-05-31T02:08:44;102771.81;;;8.97;100.00
28167;BME280;15455;53.376;-6.262;2023-05-31T02:11:30;102780.97;;;9.10;100.00
28167;BME280;15455;53.376;-6.262;2023-05-31T02:14:15;102778.66;;;9.17;100.00
28167;BME280;15455;53.376;-6.262;2023-05-31T02:17:00;102778.06;;;9.25;100.00
28167;BME280;15455;53.376;-6.262;2023-05-31T02:19:46;102776.59;;;9.33;100.00
28167;BME280;15455;53.376;-6.262;2023-05-31T02:22:32;102783.47;;;9.55;100.00
28167;BME280;15455;53.376;-6.262;2023-05-31T02:25:18;102777.41;;;9.82;100.00
28167;BME280;15455;53.376;-6.262;2023-05-31T02:28:03;102772.88;;;10.03;100.00
28167;BME280;15455;53.376;-6.262;2023-05-31T02:30:56;102777.81;;;10.21;100.00
28167;BME280;15455;53.376;-6.262;2023-05-31T02:33:42;102766.00;;;10.33;100.00
28167;BME280;15455;53.376;-6.262;2023-05-31T02:36:27;102761.03;;;10.40;100.00
28167;BME280;15455;53.376;-6.262;2023-05-31T02:39:15;102761.09;;;10.42;100.00
28167;BME280;15455;53.376;-6.262;2023-05-31T02:42:00;102756.13;;;10.51;100.00
28167;BME280;15455;53.376;-6.262;2023-05-31T02:44:46;102762.47;;;10.59;100.00
28167;BME280;15455;53.376;-6.262;2023-05-31T02:47:32;102760.03;;;10.66;100.00
28167;BME280;15455;53.376;-6.262;2023-05-31T02:50:18;102747.03;;;10.67;100.00
28167;BME280;15455;53.376;-6.262;2023-05-31T02:53:11;102754.13;;;10.71;100.00
28167;BME280;15455;53.376;-6.262;2023-05-31T02:56:10;102749.94;;;10.76;100.00
28167;BME280;15455;53.376;-6.262;2023-05-31T02:59:21;102750.81;;;10.77;100.00
28167;BME280;15455;53.376;-6.262;2023-05-31T03:02:27;102743.69;;;10.71;100.00
28167;BME280;15455;53.376;-6.262;2023-05-31T03:05:33;102745.25;;;10.65;100.00
28167;BME280;15455;53.376;-6.262;2023-05-31T03:08:19;102751.97;;;10.56;100.00
28167;BME280;15455;53.376;-6.262;2023-05-31T03:11:08;102757.13;;;10.55;100.00
28167;BME280;15455;53.376;-6.262;2023-05-31T03:13:53;102759.69;;;10.53;100.00
28167;BME280;15455;53.376;-6.262;2023-05-31T03:16:42;102770.09;;;10.52;100.00
28167;BME280;15455;53.376;-6.262;2023-05-31T03:19:29;102766.59;;;10.51;100.00
28167;BME280;15455;53.376;-6.262;2023-05-31T03:22:19;102763.06;;;10.49;100.00
28167;BME280;15455;53.376;-6.262;2023-05-31T03:25:06;102779.63;;;10.51;100.00
28167;BME280;15455;53.376;-6.262;2023-05-31T03:27:52;102777.16;;;10.54;100.00
28167;BME280;15455;53.376;-6.262;2023-05-31T03:30:37;102773.63;;;10.54;100.00
28167;BME280;15455;53.376;-6.262;2023-05-31T03:33:23;102772.75;;;10.53;100.00
28167;BME280;15455;53.376;-6.262;2023-05-31T03:36:11;102769.22;;;10.53;100.00
28167;BME280;15455;53.376;-6.262;2023-05-31T03:38:57;102769.09;;;10.48;100.00
28167;BME280;15455;53.376;-6.262;2023-05-31T03:41:43;102772.63;;;10.49;100.00
28167;BME280;15455;53.376;-6.262;2023-05-31T03:44:28;102773.41;;;10.46;100.00
28167;BME280;15455;53.376;-6.262;2023-05-31T03:47:13;102775.97;;;10.45;100.00
28167;BME280;15455;53.376;-6.262;2023-05-31T03:49:59;102780.94;;;10.37;100.00
28167;BME280;15455;53.376;-6.262;2023-05-31T03:52:44;102782.34;;;10.27;100.00
28167;BME280;15455;53.376;-6.262;2023-05-31T03:55:30;102780.53;;;10.24;100.00
28167;BME280;15455;53.376;-6.262;2023-05-31T03:58:16;102782.03;;;10.18;100.00
28167;BME280;15455;53.376;-6.262;2023-05-31T04:01:02;102776.00;;;10.19;100.00
28167;BME280;15455;53.376;-6.262;2023-05-31T04:03:48;102779.75;;;10.27;100.00
28167;BME280;15455;53.376;-6.262;2023-05-31T04:06:34;102782.66;;;10.36;100.00
28167;BME280;15455;53.376;-6.262;2023-05-31T04:09:20;102780.19;;;10.41;100.00
28167;BME280;15455;53.376;-6.262;2023-05-31T04:12:06;102774.94;;;10.39;100.00
28167;BME280;15455;53.376;-6.262;2023-05-31T04:14:53;102785.06;;;10.30;100.00
28167;BME280;15455;53.376;-6.262;2023-05-31T04:17:39;102779.75;;;10.27;100.00
28167;BME280;15455;53.376;-6.262;2023-05-31T04:20:25;102778.06;;;10.29;100.00
28167;BME280;15455;53.376;-6.262;2023-05-31T04:23:11;102785.97;;;10.32;100.00
28167;BME280;15455;53.376;-6.262;2023-05-31T04:25:57;102789.56;;;10.34;100.00
28167;BME280;15455;53.376;-6.262;2023-05-31T04:28:47;102787.88;;;10.36;100.00
28167;BME280;15455;53.376;-6.262;2023-05-31T04:31:38;102785.41;;;10.41;100.00
28167;BME280;15455;53.376;-6.262;2023-05-31T04:34:37;102789.03;;;10.45;100.00
28167;BME280;15455;53.376;-6.262;2023-05-31T04:37:25;102784.72;;;10.47;100.00
28167;BME280;15455;53.376;-6.262;2023-05-31T04:40:16;102783.16;;;10.52;100.00
28167;BME280;15455;53.376;-6.262;2023-05-31T04:43:02;102786.78;;;10.57;100.00
28167;BME280;15455;53.376;-6.262;2023-05-31T04:45:50;102784.41;;;10.65;100.00
28167;BME280;15455;53.376;-6.262;2023-05-31T04:48:36;102790.78;;;10.74;100.00
28167;BME280;15455;53.376;-6.262;2023-05-31T04:51:22;102788.31;;;10.79;100.00
28167;BME280;15455;53.376;-6.262;2023-05-31T04:54:08;102796.41;;;10.88;100.00
28167;BME280;15455;53.376;-6.262;2023-05-31T04:56:54;102793.22;;;10.99;100.00
28167;BME280;15455;53.376;-6.262;2023-05-31T04:59:39;102785.34;;;11.29;100.00
28167;BME280;15455;53.376;-6.262;2023-05-31T05:02:26;102787.16;;;11.30;100.00
28167;BME280;15455;53.376;-6.262;2023-05-31T05:05:13;102782.78;;;11.30;100.00
28167;BME280;15455;53.376;-6.262;2023-05-31T05:08:01;102788.91;;;11.31;100.00
28167;BME280;15455;53.376;-6.262;2023-05-31T05:10:48;102787.19;;;11.32;100.00
28167;BME280;15455;53.376;-6.262;2023-05-31T05:13:35;102787.22;;;11.33;100.00
28167;BME280;15455;53.376;-6.262;2023-05-31T05:16:21;102790.81;;;11.37;100.00
28167;BME280;15455;53.376;-6.262;2023-05-31T05:19:07;102791.78;;;11.40;100.00
28167;BME280;15455;53.376;-6.262;2023-05-31T05:21:55;102791.84;;;11.43;100.00
28167;BME280;15455;53.376;-6.262;2023-05-31T05:24:41;102787.59;;;11.47;100.00
28167;BME280;15455;53.376;-6.262;2023-05-31T05:27:27;102783.31;;;11.51;100.00
28167;BME280;15455;53.376;-6.262;2023-05-31T05:30:14;102781.69;;;11.54;100.00
28167;BME280;15455;53.376;-6.262;2023-05-31T05:33:01;102784.47;;;11.60;100.00
28167;BME280;15455;53.376;-6.262;2023-05-31T05:35:48;102782.91;;;11.67;100.00
28167;BME280;15455;53.376;-6.262;2023-05-31T05:38:34;102787.47;;;11.76;100.00
28167;BME280;15455;53.376;-6.262;2023-05-31T05:41:20;102793.78;;;11.84;100.00
28167;BME280;15455;53.376;-6.262;2023-05-31T05:44:05;102788.81;;;11.93;100.00
28167;BME280;15455;53.376;-6.262;2023-05-31T05:46:51;102784.53;;;11.97;100.00
28167;BME280;15455;53.376;-6.262;2023-05-31T05:49:37;102785.53;;;12.02;100.00
28167;BME280;15455;53.376;-6.262;2023-05-31T05:52:25;102795.34;;;12.11;100.00
28167;BME280;15455;53.376;-6.262;2023-05-31T05:55:10;102793.75;;;12.18;100.00
28167;BME280;15455;53.376;-6.262;2023-05-31T05:57:57;102792.13;;;12.23;100.00
28167;BME280;15455;53.376;-6.262;2023-05-31T06:01:01;102797.50;;;12.29;100.00
28167;BME280;15455;53.376;-6.262;2023-05-31T06:03:51;102794.09;;;12.31;100.00
28167;BME280;15455;53.376;-6.262;2023-05-31T06:06:36;102794.13;;;12.33;100.00
28167;BME280;15455;53.376;-6.262;2023-05-31T06:09:22;102787.16;;;12.33;100.00
28167;BME280;15455;53.376;-6.262;2023-05-31T06:12:09;102779.34;;;12.35;100.00
28167;BME280;15455;53.376;-6.262;2023-05-31T06:14:57;102785.63;;;12.43;100.00
28167;BME280;15455;53.376;-6.262;2023-05-31T06:17:43;102795.38;;;12.50;100.00
28167;BME280;15455;53.376;-6.262;2023-05-31T06:20:29;102793.00;;;12.61;100.00
28167;BME280;15455;53.376;-6.262;2023-05-31T06:23:17;102793.13;;;12.67;100.00
28167;BME280;15455;53.376;-6.262;2023-05-31T06:26:03;102792.44;;;12.75;100.00
28167;BME280;15455;53.376;-6.262;2023-05-31T06:28:50;102797.81;;;12.82;100.00
28167;BME280;15455;53.376;-6.262;2023-05-31T06:32:02;102780.50;;;12.89;100.00
28167;BME280;15455;53.376;-6.262;2023-05-31T06:34:53;102775.34;;;12.94;100.00
28167;BME280;15455;53.376;-6.262;2023-05-31T06:37:38;102780.78;;;13.03;100.00
28167;BME280;15455;53.376;-6.262;2023-05-31T06:40:24;102776.47;;;13.07;100.00
28167;BME280;15455;53.376;-6.262;2023-05-31T06:43:10;102767.03;;;13.15;100.00
28167;BME280;15455;53.376;-6.262;2023-05-31T06:46:18;102769.91;;;13.29;100.00
28167;BME280;15455;53.376;-6.262;2023-05-31T06:49:24;102770.19;;;13.41;100.00
28167;BME280;15455;53.376;-6.262;2023-05-31T06:52:28;102765.03;;;13.47;100.00
28167;BME280;15455;53.376;-6.262;2023-05-31T06:55:52;102762.56;;;13.55;100.00
28167;BME280;15455;53.376;-6.262;2023-05-31T06:58:39;102761.03;;;13.68;100.00
28167;BME280;15455;53.376;-6.262;2023-05-31T07:01:26;102761.31;;;13.85;100.00
28167;BME280;15455;53.376;-6.262;2023-05-31T07:04:14;102757.13;;;13.98;100.00
28167;BME280;15455;53.376;-6.262;2023-05-31T07:07:00;102760.72;;;14.03;100.00
28167;BME280;15455;53.376;-6.262;2023-05-31T07:09:47;102756.28;;;13.99;100.00
28167;BME280;15455;53.376;-6.262;2023-05-31T07:12:37;102750.94;;;13.91;100.00
28167;BME280;15455;53.376;-6.262;2023-05-31T07:15:22;102754.34;;;13.87;100.00
28167;BME280;15455;53.376;-6.262;2023-05-31T07:18:08;102752.50;;;13.81;100.00
28167;BME280;15455;53.376;-6.262;2023-05-31T07:20:54;102756.81;;;13.79;100.00
28167;BME280;15455;53.376;-6.262;2023-05-31T07:23:42;102750.63;;;13.74;100.00
28167;BME280;15455;53.376;-6.262;2023-05-31T07:26:28;102764.59;;;13.71;100.00
28167;BME280;15455;53.376;-6.262;2023-05-31T07:29:13;102756.63;;;13.65;100.00
28167;BME280;15455;53.376;-6.262;2023-05-31T07:31:58;102744.34;;;13.64;100.00
28167;BME280;15455;53.376;-6.262;2023-05-31T07:34:44;102753.22;;;13.71;100.00
28167;BME280;15455;53.376;-6.262;2023-05-31T07:37:48;102757.91;;;13.90;100.00
28167;BME280;15455;53.376;-6.262;2023-05-31T07:40:33;102759.81;;;14.01;100.00
28167;BME280;15455;53.376;-6.262;2023-05-31T07:43:19;102759.94;;;14.09;100.00
28167;BME280;15455;53.376;-6.262;2023-05-31T07:46:06;102759.19;;;14.16;100.00
28167;BME280;15455;53.376;-6.262;2023-05-31T07:48:52;102749.63;;;14.22;100.00
28167;BME280;15455;53.376;-6.262;2023-05-31T07:51:39;102749.72;;;14.27;100.00
28167;BME280;15455;53.376;-6.262;2023-05-31T07:54:25;102755.13;;;14.39;100.00
28167;BME280;15455;53.376;-6.262;2023-05-31T07:57:11;102753.41;;;14.41;100.00
28167;BME280;15455;53.376;-6.262;2023-05-31T07:59:57;102755.03;;;14.33;100.00
28167;BME280;15455;53.376;-6.262;2023-05-31T08:02:42;102753.22;;;14.28;100.00
28167;BME280;15455;53.376;-6.262;2023-05-31T08:05:28;102760.13;;;14.22;100.00
28167;BME280;15455;53.376;-6.262;2023-05-31T08:08:14;102758.09;;;14.03;100.00
28167;BME280;15455;53.376;-6.262;2023-05-31T08:11:00;102759.66;;;13.92;100.00
28167;BME280;15455;53.376;-6.262;2023-05-31T08:13:46;102763.94;;;13.86;100.00
28167;BME280;15455;53.376;-6.262;2023-05-31T08:16:32;102764.03;;;13.91;100.00
28167;BME280;15455;53.376;-6.262;2023-05-31T08:19:18;102758.94;;;14.00;100.00
28167;BME280;15455;53.376;-6.262;2023-05-31T08:22:04;102758.22;;;14.11;100.00
28167;BME280;15455;53.376;-6.262;2023-05-31T08:24:50;102752.97;;;14.12;100.00
28167;BME280;15455;53.376;-6.262;2023-05-31T08:27:35;102744.50;;;14.30;100.00
28167;BME280;15455;53.376;-6.262;2023-05-31T08:30:21;102751.75;;;14.48;100.00
28167;BME280;15455;53.376;-6.262;2023-05-31T08:33:06;102737.84;;;14.57;100.00
28167;BME280;15455;53.376;-6.262;2023-05-31T08:35:52;102746.84;;;14.74;100.00
28167;BME280;15455;53.376;-6.262;2023-05-31T08:38:40;102748.84;;;14.94;100.00
28167;BME280;15455;53.376;-6.262;2023-05-31T08:41:28;102739.97;;;14.86;100.00
28167;BME280;15455;53.376;-6.262;2023-05-31T08:44:17;102738.34;;;14.96;100.00
28167;BME280;15455;53.376;-6.262;2023-05-31T08:47:10;102741.16;;;15.13;100.00
28167;BME280;15455;53.376;-6.262;2023-05-31T08:49:58;102747.41;;;15.22;100.00
28167;BME280;15455;53.376;-6.262;2023-05-31T08:52:45;102740.41;;;15.26;100.00
28167;BME280;15455;53.376;-6.262;2023-05-31T08:55:31;102750.16;;;15.35;100.00
28167;BME280;15455;53.376;-6.262;2023-05-31T08:58:18;102751.91;;;15.33;100.00
28167;BME280;15455;53.376;-6.262;2023-05-31T09:01:04;102751.13;;;15.43;100.00
28167;BME280;15455;53.376;-6.262;2023-05-31T09:03:54;102747.53;;;15.38;100.00
28167;BME280;15455;53.376;-6.262;2023-05-31T09:06:39;102745.88;;;15.44;100.00
28167;BME280;15455;53.376;-6.262;2023-05-31T09:09:25;102745.06;;;15.55;100.00
28167;BME280;15455;53.376;-6.262;2023-05-31T09:12:11;102748.38;;;15.34;100.00
28167;BME280;15455;53.376;-6.262;2023-05-31T09:14:57;102742.38;;;15.47;100.00
28167;BME280;15455;53.376;-6.262;2023-05-31T09:17:43;102739.88;;;15.62;100.00
28167;BME280;15455;53.376;-6.262;2023-05-31T09:20:32;102735.56;;;15.72;100.00
28167;BME280;15455;53.376;-6.262;2023-05-31T09:23:19;102740.09;;;15.86;100.00
28167;BME280;15455;53.376;-6.262;2023-05-31T09:26:08;102736.72;;;16.04;100.00
28167;BME280;15455;53.376;-6.262;2023-05-31T09:28:54;102734.16;;;16.16;100.00
28167;BME280;15455;53.376;-6.262;2023-05-31T09:31:41;102735.94;;;16.23;100.00
28167;BME280;15455;53.376;-6.262;2023-05-31T09:34:28;102737.66;;;16.13;100.00
28167;BME280;15455;53.376;-6.262;2023-05-31T09:37:24;102741.19;;;16.19;100.00
28167;BME280;15455;53.376;-6.262;2023-05-31T09:40:12;102748.22;;;16.17;100.00
28167;BME280;15455;53.376;-6.262;2023-05-31T09:42:59;102749.91;;;16.05;100.00
28167;BME280;15455;53.376;-6.262;2023-05-31T09:45:47;102739.22;;;15.87;100.00
28167;BME280;15455;53.376;-6.262;2023-05-31T09:48:33;102736.66;;;15.96;100.00
28167;BME280;15455;53.376;-6.262;2023-05-31T09:51:19;102738.31;;;15.82;100.00
28167;BME280;15455;53.376;-6.262;2023-05-31T09:54:15;102742.59;;;15.72;100.00
28167;BME280;15455;53.376;-6.262;2023-05-31T09:57:02;102739.22;;;15.84;100.00
28167;BME280;15455;53.376;-6.262;2023-05-31T09:59:56;102734.81;;;15.83;100.00
28167;BME280;15455;53.376;-6.262;2023-05-31T10:02:46;102733.72;;;15.57;100.00
28167;BME280;15455;53.376;-6.262;2023-05-31T10:05:33;102734.56;;;15.55;100.00
28167;BME280;15455;53.376;-6.262;2023-05-31T10:08:18;102734.56;;;15.58;100.00
28167;BME280;15455;53.376;-6.262;2023-05-31T10:11:05;102729.03;;;15.27;100.00
28167;BME280;15455;53.376;-6.262;2023-05-31T10:13:53;102734.31;;;15.28;100.00
28167;BME280;15455;53.376;-6.262;2023-05-31T10:16:45;102739.69;;;15.42;100.00
28167;BME280;15455;53.376;-6.262;2023-05-31T10:19:35;102739.84;;;15.58;100.00
28167;BME280;15455;53.376;-6.262;2023-05-31T10:22:26;102739.06;;;15.70;100.00
28167;BME280;15455;53.376;-6.262;2023-05-31T10:25:27;102741.66;;;15.67;100.00
28167;BME280;15455;53.376;-6.262;2023-05-31T10:28:15;102743.38;;;15.60;100.00
28167;BME280;15455;53.376;-6.262;2023-05-31T10:31:03;102735.25;;;15.35;100.00
28167;BME280;15455;53.376;-6.262;2023-05-31T10:33:53;102734.56;;;15.55;100.00
28167;BME280;15455;53.376;-6.262;2023-05-31T10:36:39;102730.28;;;15.71;100.00
28167;BME280;15455;53.376;-6.262;2023-05-31T10:42:27;102734.06;;;15.97;100.00
28167;BME280;15455;53.376;-6.262;2023-05-31T10:45:43;102744.41;;;15.76;100.00
28167;BME280;15455;53.376;-6.262;2023-05-31T10:48:38;102741.75;;;15.76;100.00
28167;BME280;15455;53.376;-6.262;2023-05-31T10:51:38;102747.09;;;15.80;100.00
28167;BME280;15455;53.376;-6.262;2023-05-31T10:54:28;102739.38;;;16.05;100.00
28167;BME280;15455;53.376;-6.262;2023-05-31T10:57:15;102756.03;;;16.03;100.00
28167;BME280;15455;53.376;-6.262;2023-05-31T11:00:00;102746.41;;;16.08;100.00
28167;BME280;15455;53.376;-6.262;2023-05-31T11:02:53;102749.13;;;16.22;100.00
28167;BME280;15455;53.376;-6.262;2023-05-31T11:05:54;102751.84;;;16.36;100.00
28167;BME280;15455;53.376;-6.262;2023-05-31T11:09:09;102744.88;;;16.45;100.00
28167;BME280;15455;53.376;-6.262;2023-05-31T11:11:56;102752.84;;;16.62;100.00
28167;BME280;15455;53.376;-6.262;2023-05-31T11:14:58;102745.84;;;16.71;100.00
28167;BME280;15455;53.376;-6.262;2023-05-31T11:17:50;102751.00;;;16.43;100.00
28167;BME280;15455;53.376;-6.262;2023-05-31T11:20:37;102739.53;;;16.35;100.00
28167;BME280;15455;53.376;-6.262;2023-05-31T11:26:16;102747.41;;;16.30;100.00
28167;BME280;15455;53.376;-6.262;2023-05-31T11:29:03;102749.91;;;16.07;100.00
28167;BME280;15455;53.376;-6.262;2023-05-31T11:34:51;102737.59;;;16.04;100.00
28167;BME280;15455;53.376;-6.262;2023-05-31T11:37:40;102735.91;;;16.14;100.00
28167;BME280;15455;53.376;-6.262;2023-05-31T11:40:27;102732.28;;;16.00;100.00
28167;BME280;15455;53.376;-6.262;2023-05-31T11:43:15;102728.78;;;15.99;100.00
28167;BME280;15455;53.376;-6.262;2023-05-31T11:46:04;102730.50;;;15.95;100.00
28167;BME280;15455;53.376;-6.262;2023-05-31T11:48:50;102722.66;;;16.03;100.00
28167;BME280;15455;53.376;-6.262;2023-05-31T11:51:37;102720.91;;;16.01;100.00
28167;BME280;15455;53.376;-6.262;2023-05-31T11:54:25;102734.81;;;15.86;100.00
28167;BME280;15455;53.376;-6.262;2023-05-31T11:57:12;102721.63;;;15.79;100.00
28167;BME280;15455;53.376;-6.262;2023-05-31T12:00:04;102721.72;;;15.93;100.00
28167;BME280;15455;53.376;-6.262;2023-05-31T12:02:57;102718.28;;;16.05;100.00
28167;BME280;15455;53.376;-6.262;2023-05-31T12:05:50;102722.63;;;15.98;100.00
28167;BME280;15455;53.376;-6.262;2023-05-31T12:08:39;102719.09;;;15.93;100.00
28167;BME280;15455;53.376;-6.262;2023-05-31T12:11:27;102712.03;;;15.86;100.00
28167;BME280;15455;53.376;-6.262;2023-05-31T12:14:14;102710.25;;;15.84;100.00
28167;BME280;15455;53.376;-6.262;2023-05-31T12:17:04;102707.75;;;16.04;100.00
28167;BME280;15455;53.376;-6.262;2023-05-31T12:19:51;102704.19;;;15.98;100.00
28167;BME280;15455;53.376;-6.262;2023-05-31T12:22:36;102703.34;;;16.06;100.00
28167;BME280;15455;53.376;-6.262;2023-05-31T12:25:21;102706.94;;;16.19;100.00
28167;BME280;15455;53.376;-6.262;2023-05-31T12:28:07;102698.22;;;16.27;100.00
28167;BME280;15455;53.376;-6.262;2023-05-31T12:30:53;102703.53;;;16.34;100.00
28167;BME280;15455;53.376;-6.262;2023-05-31T12:33:42;102702.72;;;16.48;100.00
28167;BME280;15455;53.376;-6.262;2023-05-31T12:36:27;102699.22;;;16.54;100.00
28167;BME280;15455;53.376;-6.262;2023-05-31T12:39:23;102692.19;;;16.58;100.00
28167;BME280;15455;53.376;-6.262;2023-05-31T12:42:11;102696.63;;;16.66;100.00
28167;BME280;15455;53.376;-6.262;2023-05-31T12:45:02;102696.59;;;16.57;100.00
28167;BME280;15455;53.376;-6.262;2023-05-31T12:47:56;102692.19;;;16.53;100.00
28167;BME280;15455;53.376;-6.262;2023-05-31T12:50:44;102696.53;;;16.43;100.00
28167;BME280;15455;53.376;-6.262;2023-05-31T12:53:31;102695.63;;;16.37;100.00
28167;BME280;15455;53.376;-6.262;2023-05-31T12:56:16;102689.53;;;16.42;100.00
28167;BME280;15455;53.376;-6.262;2023-05-31T12:59:02;102697.44;;;16.44;100.00
28167;BME280;15455;53.376;-6.262;2023-05-31T13:01:47;102700.94;;;16.43;100.00
28167;BME280;15455;53.376;-6.262;2023-05-31T13:04:33;102693.91;;;16.45;100.00
28167;BME280;15455;53.376;-6.262;2023-05-31T13:07:19;102693.03;;;16.47;100.00
28167;BME280;15455;53.376;-6.262;2023-05-31T13:10:05;102695.69;;;16.55;100.00
28167;BME280;15455;53.376;-6.262;2023-05-31T13:12:56;102686.97;;;16.64;100.00
28167;BME280;15455;53.376;-6.262;2023-05-31T13:15:42;102693.13;;;16.74;100.00
28167;BME280;15455;53.376;-6.262;2023-05-31T13:18:28;102687.00;;;16.81;100.00
28167;BME280;15455;53.376;-6.262;2023-05-31T13:21:13;102694.91;;;16.79;100.00
28167;BME280;15455;53.376;-6.262;2023-05-31T13:23:59;102699.25;;;16.60;100.00
28167;BME280;15455;53.376;-6.262;2023-05-31T13:26:45;102699.22;;;16.57;100.00
28167;BME280;15455;53.376;-6.262;2023-05-31T13:29:30;102699.22;;;16.54;100.00
28167;BME280;15455;53.376;-6.262;2023-05-31T13:32:15;102690.47;;;16.58;100.00
28167;BME280;15455;53.376;-6.262;2023-05-31T13:35:01;102693.97;;;16.54;100.00
28167;BME280;15455;53.376;-6.262;2023-05-31T13:37:46;102696.63;;;16.68;100.00
28167;BME280;15455;53.376;-6.262;2023-05-31T13:40:32;102699.22;;;16.54;100.00
28167;BME280;15455;53.376;-6.262;2023-05-31T13:43:20;102692.19;;;16.56;100.00
28167;BME280;15455;53.376;-6.262;2023-05-31T13:46:08;102697.44;;;16.47;100.00
28167;BME280;15455;53.376;-6.262;2023-05-31T13:48:54;102694.84;;;16.62;100.00
28167;BME280;15455;53.376;-6.262;2023-05-31T13:51:39;102688.75;;;16.71;100.00
28167;BME280;15455;53.376;-6.262;2023-05-31T13:54:25;102693.09;;;16.57;100.00
28167;BME280;15455;53.376;-6.262;2023-05-31T13:57:11;102690.47;;;16.63;100.00
28167;BME280;15455;53.376;-6.262;2023-05-31T13:59:56;102695.81;;;16.86;100.00
28167;BME280;15455;53.376;-6.262;2023-05-31T14:02:42;102692.34;;;16.93;100.00
28167;BME280;15455;53.376;-6.262;2023-05-31T14:05:28;102686.22;;;17.05;100.00
28167;BME280;15455;53.376;-6.262;2023-05-31T14:08:14;102684.47;;;17.18;100.00
28167;BME280;15455;53.376;-6.262;2023-05-31T14:10:59;102682.72;;;17.25;100.00
28167;BME280;15455;53.376;-6.262;2023-05-31T14:13:45;102688.00;;;17.39;100.00
28167;BME280;15455;53.376;-6.262;2023-05-31T14:16:31;102680.97;;;17.47;100.00
28167;BME280;15455;53.376;-6.262;2023-05-31T14:19:17;102686.22;;;17.56;100.00
28167;BME280;15455;53.376;-6.262;2023-05-31T14:22:03;102680.94;;;17.85;100.00
28167;BME280;15455;53.376;-6.262;2023-05-31T14:24:49;102665.00;;;18.22;100.00
28167;BME280;15455;53.376;-6.262;2023-05-31T14:27:34;102661.44;;;18.34;100.00
28167;BME280;15455;53.376;-6.262;2023-05-31T14:30:20;102663.22;;;18.29;100.00
28167;BME280;15455;53.376;-6.262;2023-05-31T14:33:05;102662.25;;;18.43;100.00